Terminal Aerodrome Forecast
Issued by NWS Wilmington, OH

Current Version | Previous Version | Text Only | Print | Product List | Glossary On
Versions: 1 2 3 4 5 6 7 8 9 10 11 12 13 14 15 16 17 18 19 20 21 22 23 24
000
FTUS41 KILN 272000 AAA
TAFILN
TAF AMD
KILN 272002Z 2720/2818 21009KT P6SM VCSH OVC015
      TEMPO 2720/2723 3SM -SHRA BR BKN007 OVC010
     FM272300 25009KT 5SM BR VCSH BKN009
     FM280500 24007KT 3SM -SHRA BR BKN004
     FM281000 31007KT 3SM -SHRA BR OVC007
     FM281700 32007KT 4SM BR OVC009=

USA.gov is the U.S. government's official web portal to all federal, state and local government web resources and services.